AirNav   Air Wisconsin Airman Trainee
 
 596 users online  

26AL Richardson Field Airport
Mobile, Alabama, USA

GOING TO MOBILE?


FAA INFORMATION EFFECTIVE 31 JANUARY 2019

Location

FAA Identifier: 26AL
Lat/Long: 30-37-53.0000N / 088-16-47.0000W
30-37.883333N / 088-16.783333W
30.6313889 / -88.2797222
(estimated)
Elevation: 180 ft. / 55 m (estimated)
Variation: 00W (2000)
From city: 12 miles SW of MOBILE, AL
Time zone: UTC -6 (UTC -5 during Daylight Saving Time)
Zip code: 36695

Airport Operations

Airport use: Private use. Permission required prior to landing
Activation date: 09/2002
Control tower: no
ARTCC: HOUSTON CENTER
FSS: ANNISTON FLIGHT SERVICE STATION
Attendance: UNATNDD
Wind indicator: yes
Segmented circle: no

Airport Communications

WX ASOS at MOB (4 nm NE): PHONE 251-607-0469
WX ASOS at BFM (11 nm E): PHONE 251-431-6762
WX ASOS at PQL (16 nm SW): 135.175 (228-474-2836)

Nearby radio navigation aids

VOR radial/distance  VOR name  Freq  Var
SJIr139/7.0SEMMES VORTAC115.3005E
BFMr272/11.6BROOKLEY VORTAC112.8004E
GCVr154/29.9GREENE COUNTY VORTAC115.7005E

 
NDB name  Hdg/Dist  Freq  Var  ID
WISLE172/7.824801WMOB -- --- -...

Airport Services

Runway Information

Runway 9/27

Dimensions: 2700 x 200 ft. / 823 x 61 m
Surface: turf
RUNWAY 9  RUNWAY 27
Traffic pattern: leftleft

Airport Ownership and Management from official FAA records

Ownership: Privately-owned
Owner: JOHN D RICHARDSON
9951 JEFF HAMILTON RD
MOBILE, AL 36695
Phone 251-633-5618
Manager: JOHN D RICHARDSON
9951 JEFF HAMILTON RD
MOBILE, AL 36695
Phone 251-633-5618

Airport Operational Statistics

Aircraft based on the field: 2
Single engine airplanes: 1
Multi engine airplanes: 1
    

Additional Remarks

OWNER DESIRES CHARTING.

Instrument Procedures

There are no published instrument procedures at 26AL.

Some nearby airports with instrument procedures:

KMOB - Mobile Regional Airport (4 nm NE)
2R5 - St Elmo Airport (8 nm S)
KBFM - Mobile Downtown Airport (11 nm E)
KPQL - Trent Lott International Airport (16 nm SW)
KCQF - H L Sonny Callahan Airport (23 nm SE)
 
Loc | Ops | Rwys | IFR | FBO | Links
Com | Nav | Svcs | Stats | Notes

Continental Motors
AirBoss

 
Area around 26AL (Richardson Field Airport)
 
Road maps at: MapQuest Bing Google
 
Aerial photo
No photo
 
Sectional chart

 
Airport distance calculator
Flying to Richardson Field Airport? Find the distance to fly.

From to 26AL

Sunrise and sunset
Times for 22-Feb-2019
 Local
(UTC-6)
 Zulu
(UTC)
Morning civil twilight06:0412:04
Sunrise06:2812:28
Sunset17:4523:45
Evening civil twilight18:1000:10

Current date and time
Zulu (UTC)  23-Feb-2019 05:12:07
Local (UTC-6)  22-Feb-2019 23:12:07
 
METAR
KMOB 
3nm NE 
230456Z 15009KT 1/2SM FG VV002 21/21 A3008 RMK AO2 SLP183 T02110211
KBFM 
11nm E 
230502Z AUTO 15006KT 2SM BR OVC002 21/21 A3008 RMK AO2 T02110211
KPQL 
16nm SW 
230453Z AUTO 14007KT 2 1/2SM BR OVC002 22/21 A3006 RMK AO2 SLP181 T02170206
TAF
KMOB 
3nm NE 
222135Z 2222/2318 15009KT 3SM BR BKN005 OVC020 FM230300 14005KT 2SM BR OVC005 FM230600 14007KT 1/2SM FG VV002 FM231600 17011G17KT 5SM BR BKN007
KBFM 
11nm E 
222136Z 2222/2318 16008KT P6SM OVC005 FM230000 16010KT 4SM BR BKN010 BKN250 FM230300 14005KT 2SM BR OVC003 FM230600 13005KT 1/2SM FG VV002 FM231600 17012G16KT 4SM BR BKN007
NOTAMs
Click for the latest NOTAMs
NOTAMs are issued by the DoD/FAA and will open in a separate window not controlled by AirNav.

 

 
 

Would you like to see your business listed on this page?

 If your business provides an interesting product or service to pilots, flight crews, aircraft, or users of the Richardson Field Airport, you should consider listing it here.  To start the listing process, click on the button below
 
Add a business
 

Other Pages about Richardson Field Airport

Update a link
 
Copyright © AirNav, LLC. All rights reserved. Privacy Policy  Contact